createdAt,value
2018-09-08T00:00:38.346Z,7.50
2018-09-08T00:03:06.260Z,8.47
2018-09-08T00:05:33.988Z,7.93
2018-09-08T00:08:01.718Z,8.30
2018-09-08T00:10:29.438Z,7.70
2018-09-08T00:12:57.310Z,7.37
2018-09-08T00:15:30.681Z,7.83
2018-09-08T00:18:03.899Z,7.97
2018-09-08T00:20:37.048Z,8.00
2018-09-08T00:23:10.212Z,7.80
2018-09-08T00:25:43.482Z,8.43
2018-09-08T00:28:14.369Z,7.67
2018-09-08T00:30:42.165Z,7.17
2018-09-08T00:33:09.880Z,7.87
2018-09-08T00:35:37.666Z,7.07
2018-09-08T00:38:05.660Z,8.40
2018-09-08T00:40:33.368Z,7.13
2018-09-08T00:43:01.117Z,7.90
2018-09-08T00:45:28.837Z,7.70
2018-09-08T00:47:56.544Z,7.60
2018-09-08T00:50:24.358Z,7.97
2018-09-08T00:52:52.082Z,8.23
2018-09-08T00:55:19.766Z,6.80
2018-09-08T00:57:47.511Z,7.37
2018-09-08T01:00:15.223Z,7.10
2018-09-08T01:02:42.941Z,7.00
2018-09-08T01:05:10.669Z,6.97
2018-09-08T01:07:38.418Z,6.90
2018-09-08T01:10:06.181Z,7.67
2018-09-08T01:12:33.910Z,6.77
2018-09-08T01:15:01.716Z,6.73
2018-09-08T01:17:29.419Z,6.40
2018-09-08T01:19:57.177Z,6.80
2018-09-08T01:22:25.849Z,6.60
2018-09-08T01:24:53.566Z,6.77
2018-09-08T01:27:21.326Z,6.30
2018-09-08T01:29:49.029Z,6.10
2018-09-08T01:32:16.709Z,6.40
2018-09-08T01:34:44.474Z,6.80
2018-09-08T01:37:12.203Z,6.43
2018-09-08T01:39:39.907Z,7.20
2018-09-08T01:42:07.632Z,6.27
2018-09-08T01:44:35.359Z,7.10
2018-09-08T01:47:03.059Z,6.33
2018-09-08T01:49:30.793Z,6.50
2018-09-08T01:54:31.830Z,6.33
2018-09-08T01:56:59.556Z,7.03
2018-09-08T01:59:27.289Z,5.73
2018-09-08T02:01:55.058Z,7.10
2018-09-08T02:04:22.779Z,6.77
2018-09-08T02:06:50.490Z,6.67
2018-09-08T02:09:18.231Z,6.70
2018-09-08T02:11:45.952Z,6.20
2018-09-08T02:14:13.705Z,6.43
2018-09-08T02:16:41.421Z,7.43
2018-09-08T02:19:09.147Z,6.93
2018-09-08T02:21:36.879Z,6.90
2018-09-08T02:24:04.653Z,7.37
2018-09-08T02:26:32.387Z,6.60
2018-09-08T02:29:00.098Z,7.37
2018-09-08T02:31:27.848Z,5.80
2018-09-08T02:33:55.565Z,6.63
2018-09-08T02:36:23.258Z,6.40
2018-09-08T02:38:51.005Z,6.27
2018-09-08T02:41:18.750Z,6.40
2018-09-08T02:43:46.470Z,6.10
2018-09-08T02:46:14.235Z,6.67
2018-09-08T02:48:41.967Z,6.87
2018-09-08T02:51:08.436Z,7.23
2018-09-08T02:53:34.944Z,6.60
2018-09-08T02:56:01.406Z,6.20
2018-09-08T02:58:27.866Z,6.30
2018-09-08T03:00:54.371Z,6.97
2018-09-08T03:03:20.840Z,6.43
2018-09-08T03:05:47.322Z,6.57
2018-09-08T03:08:13.807Z,6.83
2018-09-08T03:10:40.269Z,6.07
2018-09-08T03:13:06.720Z,7.13
2018-09-08T03:15:33.224Z,6.23
2018-09-08T03:17:59.686Z,7.83
2018-09-08T03:20:26.117Z,6.60
2018-09-08T03:22:52.590Z,7.27
2018-09-08T03:25:19.040Z,8.00
2018-09-08T03:27:45.485Z,7.40
2018-09-08T03:30:11.966Z,6.97
2018-09-08T03:32:38.397Z,6.60
2018-09-08T03:35:04.842Z,6.97
2018-09-08T03:37:31.292Z,6.80
2018-09-08T03:39:57.721Z,7.30
2018-09-08T03:42:24.148Z,6.73
2018-09-08T03:44:50.610Z,6.97
2018-09-08T03:47:17.049Z,6.80
2018-09-08T03:49:43.479Z,7.10
2018-09-08T03:52:09.945Z,6.93
2018-09-08T03:54:36.384Z,6.97
2018-09-08T03:57:02.800Z,6.77
2018-09-08T03:59:29.265Z,7.23
2018-09-08T04:01:55.713Z,7.43
2018-09-08T04:04:23.402Z,7.70
2018-09-08T04:06:51.144Z,7.53
2018-09-08T04:09:18.932Z,7.23
2018-09-08T04:11:46.626Z,7.40
2018-09-08T04:14:14.335Z,7.03
2018-09-08T04:16:42.038Z,8.07
2018-09-08T04:19:09.697Z,8.07
2018-09-08T04:21:37.402Z,7.37
2018-09-08T04:24:05.257Z,7.30
2018-09-08T04:26:33.048Z,7.40
2018-09-08T04:29:00.796Z,6.70
2018-09-08T04:31:28.492Z,8.07
2018-09-08T04:33:56.161Z,7.87
2018-09-08T04:36:23.898Z,7.73
2018-09-08T04:38:51.820Z,7.53
2018-09-08T04:41:19.506Z,7.53
2018-09-08T04:43:47.220Z,7.43
2018-09-08T04:46:14.943Z,7.10
2018-09-08T04:48:42.611Z,7.73
2018-09-08T04:51:10.338Z,7.13
2018-09-08T04:53:38.046Z,7.70
2018-09-08T04:56:05.952Z,7.33
2018-09-08T04:58:33.686Z,7.67
2018-09-08T05:01:01.386Z,7.43
2018-09-08T05:03:29.147Z,7.93
2018-09-08T05:05:56.870Z,7.77
2018-09-08T05:08:24.605Z,7.33
2018-09-08T05:10:52.294Z,7.43
2018-09-08T05:13:19.990Z,7.43
2018-09-08T05:15:47.667Z,7.40
2018-09-08T05:18:15.359Z,6.23
2018-09-08T05:20:43.078Z,6.70
2018-09-08T05:23:10.910Z,6.33
2018-09-08T05:25:38.591Z,7.03
2018-09-08T05:28:06.327Z,7.07
2018-09-08T05:30:34.020Z,6.07
2018-09-08T05:33:01.705Z,6.20
2018-09-08T05:35:29.435Z,15.27
2018-09-08T05:37:57.112Z,8.63
2018-09-08T05:40:24.830Z,7.57
2018-09-08T05:42:52.603Z,6.27
2018-09-08T05:45:20.249Z,7.13
2018-09-08T05:47:47.918Z,7.40
2018-09-08T05:50:15.682Z,7.50
2018-09-08T05:52:43.373Z,6.63
2018-09-08T05:55:11.077Z,6.43
2018-09-08T05:57:38.831Z,7.33
2018-09-08T06:00:06.522Z,7.20
2018-09-08T06:02:34.223Z,7.03
2018-09-08T06:05:01.958Z,7.13
2018-09-08T06:07:29.647Z,6.80
2018-09-08T06:09:57.366Z,6.90
2018-09-08T06:12:25.098Z,6.33
2018-09-08T06:14:52.840Z,7.67
2018-09-08T06:17:20.886Z,6.70
2018-09-08T06:19:48.595Z,7.13
2018-09-08T06:22:16.306Z,7.93
2018-09-08T06:24:44.030Z,10.23
2018-09-08T06:27:11.739Z,7.20
2018-09-08T06:29:39.386Z,7.13
2018-09-08T06:32:07.065Z,6.83
2018-09-08T06:34:34.789Z,7.13
2018-09-08T06:37:02.491Z,6.80
2018-09-08T06:39:30.188Z,5.87
2018-09-08T06:41:57.885Z,6.20
2018-09-08T06:44:25.561Z,6.63
2018-09-08T06:46:53.242Z,7.40
2018-09-08T06:49:20.975Z,6.10
2018-09-08T06:51:48.658Z,7.57
2018-09-08T06:54:16.327Z,7.20
2018-09-08T06:56:44.066Z,7.47
2018-09-08T06:59:11.739Z,7.07
2018-09-08T07:01:39.454Z,6.40
2018-09-08T07:04:07.190Z,7.20
2018-09-08T07:06:35.083Z,6.33
2018-09-08T07:09:02.936Z,6.57
2018-09-08T07:11:30.691Z,6.03
2018-09-08T07:13:58.381Z,6.70
2018-09-08T07:16:26.114Z,6.60
2018-09-08T07:18:53.845Z,6.27
2018-09-08T07:21:21.558Z,5.47
2018-09-08T07:23:49.236Z,6.50
2018-09-08T07:26:17.237Z,5.60
2018-09-08T07:28:44.970Z,5.67
2018-09-08T07:33:46.020Z,5.47
2018-09-08T07:36:13.719Z,5.57
2018-09-08T07:38:41.429Z,6.00
2018-09-08T07:41:09.133Z,6.00
2018-09-08T07:43:36.818Z,5.53
2018-09-08T07:46:04.532Z,5.70
2018-09-08T07:48:32.270Z,5.93
2018-09-08T07:50:59.974Z,6.03
2018-09-08T07:53:27.804Z,5.50
2018-09-08T07:55:55.431Z,5.37
2018-09-08T07:58:23.222Z,5.83
2018-09-08T08:00:51.009Z,4.63
2018-09-08T08:03:18.834Z,4.90
2018-09-08T08:05:46.587Z,4.80
2018-09-08T08:08:14.384Z,4.93
2018-09-08T08:10:42.195Z,4.70
2018-09-08T08:13:09.995Z,4.47
2018-09-08T08:15:37.713Z,5.20
2018-09-08T08:18:05.476Z,4.87
2018-09-08T08:20:33.163Z,4.90
2018-09-08T08:23:00.878Z,4.57
2018-09-08T08:25:29.482Z,5.00
2018-09-08T08:27:57.209Z,4.90
2018-09-08T08:30:24.928Z,4.27
2018-09-08T08:32:52.687Z,4.93
2018-09-08T08:35:20.451Z,4.37
2018-09-08T08:37:48.149Z,5.07
2018-09-08T08:40:16.275Z,5.00
2018-09-08T08:42:43.973Z,5.33
2018-09-08T08:45:11.678Z,4.80
2018-09-08T08:47:39.403Z,4.97
2018-09-08T08:50:18.216Z,4.40
2018-09-08T08:52:57.180Z,5.30
2018-09-08T08:55:24.936Z,4.83
2018-09-08T08:57:52.629Z,4.50
2018-09-08T09:00:20.382Z,4.93
2018-09-08T09:02:48.508Z,4.57
2018-09-08T09:05:16.185Z,4.13
2018-09-08T09:07:43.891Z,4.30
2018-09-08T09:10:11.611Z,4.37
2018-09-08T09:12:39.322Z,4.33
2018-09-08T09:15:07.560Z,4.17
2018-09-08T09:17:34.872Z,4.03
2018-09-08T09:20:13.631Z,4.30
2018-09-08T09:22:52.574Z,4.30
2018-09-08T09:25:20.294Z,4.33
2018-09-08T09:27:49.109Z,4.30
2018-09-08T09:30:17.632Z,4.20
2018-09-08T09:32:45.486Z,3.97
2018-09-08T09:35:14.600Z,4.33
2018-09-08T09:37:42.483Z,3.80
2018-09-08T09:40:12.047Z,4.30
2018-09-08T09:42:39.705Z,4.83
2018-09-08T09:45:08.279Z,3.90
2018-09-08T09:47:36.141Z,3.87
2018-09-08T09:50:04.234Z,4.43
2018-09-08T09:52:32.023Z,4.13
2018-09-08T09:54:59.758Z,4.57
2018-09-08T09:57:27.454Z,5.27
2018-09-08T09:59:55.182Z,5.00
2018-09-08T10:02:39.419Z,4.27
2018-09-08T10:05:09.210Z,4.30
2018-09-08T10:07:37.038Z,4.00
2018-09-08T10:10:05.383Z,4.27
2018-09-08T10:12:33.084Z,4.10
2018-09-08T10:15:00.755Z,4.00
2018-09-08T10:17:28.512Z,4.10
2018-09-08T10:19:56.206Z,4.07
2018-09-08T10:22:23.914Z,4.40
2018-09-08T10:24:51.962Z,3.50
2018-09-08T10:27:19.779Z,3.97
2018-09-08T10:29:47.471Z,3.97
2018-09-08T10:32:15.634Z,4.43
2018-09-08T10:34:43.048Z,4.10
2018-09-08T10:37:10.780Z,4.33
2018-09-08T10:39:38.563Z,4.20
2018-09-08T10:42:06.277Z,4.00
2018-09-08T10:44:33.969Z,4.50
2018-09-08T10:47:01.719Z,4.27
2018-09-08T10:49:29.473Z,3.97
2018-09-08T10:52:05.690Z,4.77
2018-09-08T10:54:33.406Z,3.70
2018-09-08T10:57:01.119Z,4.23
2018-09-08T10:59:28.871Z,4.37
2018-09-08T11:01:56.796Z,4.33
2018-09-08T11:04:24.314Z,4.77
2018-09-08T11:06:52.134Z,3.83
2018-09-08T11:09:19.825Z,4.00
2018-09-08T11:11:47.536Z,3.60
2018-09-08T11:14:15.278Z,4.17
2018-09-08T11:16:43.005Z,4.40
2018-09-08T11:19:11.124Z,4.43
2018-09-08T11:21:38.877Z,4.00
2018-09-08T11:24:06.702Z,4.30
2018-09-08T11:26:34.726Z,3.77
2018-09-08T11:29:02.458Z,4.30
2018-09-08T11:31:30.232Z,3.70
2018-09-08T11:33:58.055Z,4.10
2018-09-08T11:36:25.808Z,4.10
2018-09-08T11:38:53.512Z,4.30
2018-09-08T11:41:21.232Z,4.13
2018-09-08T11:43:48.991Z,3.57
2018-09-08T11:46:16.704Z,3.63
2018-09-08T11:48:44.418Z,4.33
2018-09-08T11:51:12.497Z,3.93
2018-09-08T11:53:40.325Z,4.23
2018-09-08T11:56:08.068Z,4.10
2018-09-08T11:58:35.801Z,3.97
2018-09-08T12:01:03.526Z,4.10
2018-09-08T12:03:31.831Z,4.13
2018-09-08T12:05:59.589Z,3.80
2018-09-08T12:08:27.310Z,4.37
2018-09-08T12:10:55.045Z,3.57
2018-09-08T12:13:22.758Z,4.20
2018-09-08T12:15:50.482Z,3.40
2018-09-08T12:18:18.210Z,3.73
2018-09-08T12:20:45.947Z,4.03
2018-09-08T12:23:13.718Z,4.27
2018-09-08T12:25:41.480Z,4.00
2018-09-08T12:28:09.321Z,4.50
2018-09-08T12:30:37.245Z,3.80
2018-09-08T12:33:05.168Z,3.83
2018-09-08T12:35:32.922Z,3.83
2018-09-08T12:38:00.685Z,4.00
2018-09-08T12:40:28.373Z,3.87
2018-09-08T12:42:56.098Z,4.50
2018-09-08T12:45:23.870Z,4.00
2018-09-08T12:47:51.607Z,4.20
2018-09-08T12:50:19.382Z,4.20
2018-09-08T12:52:47.144Z,3.87
2018-09-08T12:55:14.879Z,4.23
2018-09-08T12:57:42.614Z,4.60
2018-09-08T13:00:10.308Z,4.20
2018-09-08T13:02:38.077Z,3.60
2018-09-08T13:05:05.984Z,3.57
2018-09-08T13:07:33.897Z,3.87
2018-09-08T13:10:01.609Z,4.20
2018-09-08T13:12:29.381Z,4.07
2018-09-08T13:14:57.085Z,4.10
2018-09-08T13:17:25.118Z,4.43
2018-09-08T13:19:52.881Z,3.27
2018-09-08T13:22:20.616Z,3.70
2018-09-08T13:24:48.357Z,4.07
2018-09-08T13:27:16.082Z,3.77
2018-09-08T13:29:43.765Z,3.90
2018-09-08T13:32:11.454Z,3.80
2018-09-08T13:34:39.210Z,3.93
2018-09-08T13:37:06.922Z,4.07
2018-09-08T13:39:35.641Z,4.63
2018-09-08T13:42:03.287Z,4.43
2018-09-08T13:44:31.033Z,4.13
2018-09-08T13:46:59.166Z,4.00
2018-09-08T13:49:27.614Z,4.10
2018-09-08T13:51:55.326Z,3.83
2018-09-08T13:54:23.090Z,3.90
2018-09-08T13:56:50.896Z,3.80
2018-09-08T13:59:18.601Z,4.10
2018-09-08T14:01:46.304Z,3.80
2018-09-08T14:04:14.036Z,4.30
2018-09-08T14:06:41.758Z,3.67
2018-09-08T14:09:09.478Z,3.90
2018-09-08T14:11:37.552Z,3.80
2018-09-08T14:14:05.357Z,4.17
2018-09-08T14:16:33.086Z,3.97
2018-09-08T14:19:00.977Z,3.90
2018-09-08T14:21:28.689Z,4.60
2018-09-08T14:23:56.415Z,4.30
2018-09-08T14:26:24.151Z,4.20
2018-09-08T14:28:51.846Z,4.30
2018-09-08T14:31:19.532Z,4.23
2018-09-08T14:33:47.608Z,4.83
2018-09-08T14:36:15.284Z,4.80
2018-09-08T14:38:43.017Z,4.67
2018-09-08T14:41:10.732Z,4.57
2018-09-08T14:43:38.443Z,5.03
2018-09-08T14:46:06.413Z,4.87
2018-09-08T14:48:34.163Z,5.13
2018-09-08T14:51:01.890Z,4.43
2018-09-08T14:53:29.575Z,4.27
2018-09-08T14:55:57.278Z,4.93
2018-09-08T14:58:25.080Z,4.63
2018-09-08T15:00:52.847Z,4.63
2018-09-08T15:03:20.600Z,4.73
2018-09-08T15:05:48.301Z,4.73
2018-09-08T15:08:15.987Z,4.30
2018-09-08T15:10:43.707Z,4.60
2018-09-08T15:13:11.418Z,4.67
2018-09-08T15:15:39.087Z,4.60
2018-09-08T15:18:06.810Z,5.00
2018-09-08T15:20:34.550Z,4.50
2018-09-08T15:23:02.230Z,4.43
2018-09-08T15:25:30.266Z,4.97
2018-09-08T15:27:58.289Z,4.87
2018-09-08T15:30:25.960Z,5.13
2018-09-08T15:32:53.742Z,6.10
2018-09-08T15:35:21.875Z,5.70
2018-09-08T15:37:49.571Z,9.37
2018-09-08T15:40:17.337Z,8.00
2018-09-08T15:42:45.003Z,9.40
2018-09-08T15:45:12.731Z,8.57
2018-09-08T15:47:40.458Z,6.90
2018-09-08T15:50:08.220Z,6.20
2018-09-08T15:52:35.918Z,4.53
2018-09-08T15:55:03.753Z,4.80
2018-09-08T15:57:31.435Z,5.27
2018-09-08T15:59:59.140Z,4.70
2018-09-08T16:02:26.837Z,4.70
2018-09-08T16:04:54.532Z,4.93
2018-09-08T16:07:22.234Z,4.60
2018-09-08T16:09:49.932Z,4.30
2018-09-08T16:12:17.624Z,4.90
2018-09-08T16:14:45.524Z,4.17
2018-09-08T16:17:13.324Z,3.87
2018-09-08T16:19:41.091Z,4.80
2018-09-08T16:22:08.876Z,4.73
2018-09-08T16:24:36.716Z,4.33
2018-09-08T16:27:04.654Z,4.37
2018-09-08T16:29:32.787Z,4.63
2018-09-08T16:32:00.639Z,4.07
2018-09-08T16:34:28.424Z,4.03
2018-09-08T16:36:56.207Z,4.33
2018-09-08T16:39:24.014Z,3.87
2018-09-08T16:41:51.691Z,3.17
2018-09-08T16:44:20.253Z,3.53
2018-09-08T16:46:48.025Z,3.80
2018-09-08T16:49:15.749Z,3.40
2018-09-08T16:51:43.461Z,3.33
2018-09-08T16:54:11.210Z,3.67
2018-09-08T16:56:39.399Z,4.00
2018-09-08T16:59:07.106Z,3.70
2018-09-08T17:01:34.854Z,3.40
2018-09-08T17:04:02.561Z,3.83
2018-09-08T17:06:30.265Z,4.77
2018-09-08T17:08:58.105Z,4.83
2018-09-08T17:11:25.862Z,4.37
2018-09-08T17:13:53.535Z,4.13
2018-09-08T17:16:21.245Z,4.40
2018-09-08T17:18:48.953Z,4.20
2018-09-08T17:21:16.625Z,4.80
2018-09-08T17:23:44.368Z,4.30
2018-09-08T17:26:12.097Z,4.37
2018-09-08T17:28:39.922Z,4.23
2018-09-08T17:31:07.616Z,4.40
2018-09-08T17:33:35.337Z,4.07
2018-09-08T17:36:03.067Z,3.93
2018-09-08T17:38:30.839Z,4.67
2018-09-08T17:40:58.528Z,3.63
2018-09-08T17:43:26.252Z,4.03
2018-09-08T17:45:54.011Z,3.70
2018-09-08T17:48:21.719Z,4.77
2018-09-08T17:50:49.422Z,4.63
2018-09-08T17:53:17.172Z,4.93
2018-09-08T17:55:44.873Z,4.70
2018-09-08T17:58:12.701Z,5.60
2018-09-08T18:00:40.423Z,5.57
2018-09-08T18:03:08.158Z,6.20
2018-09-08T18:05:35.991Z,4.60
2018-09-08T18:08:03.717Z,5.77
2018-09-08T18:10:31.431Z,5.37
2018-09-08T18:12:59.144Z,4.80
2018-09-08T18:15:26.857Z,4.23
2018-09-08T18:17:54.561Z,5.23
2018-09-08T18:20:22.308Z,4.50
2018-09-08T18:22:50.058Z,4.33
2018-09-08T18:25:17.779Z,4.77
2018-09-08T18:27:45.509Z,4.03
2018-09-08T18:30:13.290Z,4.60
2018-09-08T18:32:40.989Z,4.77
2018-09-08T18:35:10.334Z,4.57
2018-09-08T18:37:38.068Z,4.43
2018-09-08T18:40:05.918Z,4.20
2018-09-08T18:42:33.637Z,4.27
2018-09-08T18:45:01.365Z,4.40
2018-09-08T18:47:29.081Z,4.97
2018-09-08T18:49:56.762Z,4.50
2018-09-08T18:52:24.508Z,4.33
2018-09-08T18:54:52.198Z,4.10
2018-09-08T18:57:19.918Z,4.30
2018-09-08T18:59:47.644Z,4.60
2018-09-08T19:02:15.549Z,4.43
2018-09-08T19:04:43.243Z,4.57
2018-09-08T19:07:10.910Z,4.33
2018-09-08T19:09:38.609Z,4.07
2018-09-08T19:12:06.300Z,4.10
2018-09-08T19:14:39.405Z,4.20
2018-09-08T19:17:07.081Z,4.90
2018-09-08T19:19:34.761Z,4.03
2018-09-08T19:22:02.497Z,4.60
2018-09-08T19:24:35.706Z,4.83
2018-09-08T19:27:03.464Z,5.27
2018-09-08T19:29:36.565Z,4.47
2018-09-08T19:32:04.304Z,5.13
2018-09-08T19:34:31.981Z,4.20
2018-09-08T19:36:59.712Z,4.83
2018-09-08T19:39:27.443Z,4.10
2018-09-08T19:41:55.141Z,4.57
2018-09-08T19:44:22.845Z,4.87
2018-09-08T19:46:56.161Z,4.70
2018-09-08T19:49:23.821Z,4.53
2018-09-08T19:51:51.513Z,4.60
2018-09-08T19:54:19.249Z,4.43
2018-09-08T19:56:52.509Z,4.33
2018-09-08T19:59:20.229Z,3.90
2018-09-08T20:01:47.932Z,4.10
2018-09-08T20:04:15.665Z,4.30
2018-09-08T20:06:43.405Z,4.23
2018-09-08T20:09:11.187Z,4.67
2018-09-08T20:11:38.899Z,4.77
2018-09-08T20:14:06.729Z,4.23
2018-09-08T20:16:34.421Z,4.60
2018-09-08T20:19:02.164Z,5.07
2018-09-08T20:21:29.911Z,3.90
2018-09-08T20:23:57.592Z,4.33
2018-09-08T20:26:25.330Z,4.43
2018-09-08T20:28:53.116Z,4.23
2018-09-08T20:31:20.774Z,4.03
2018-09-08T20:33:48.434Z,4.23
2018-09-08T20:36:16.163Z,4.33
2018-09-08T20:38:43.873Z,4.40
2018-09-08T20:41:11.572Z,4.00
2018-09-08T20:43:39.294Z,3.70
2018-09-08T20:46:07.025Z,4.40
2018-09-08T20:48:34.726Z,4.50
2018-09-08T20:51:02.497Z,4.43
2018-09-08T20:53:30.169Z,4.37
2018-09-08T20:55:57.865Z,4.20
2018-09-08T20:58:25.599Z,4.00
2018-09-08T21:00:53.332Z,4.30
2018-09-08T21:03:21.054Z,3.90
2018-09-08T21:05:48.829Z,3.60
2018-09-08T21:08:16.531Z,3.90
2018-09-08T21:10:44.249Z,3.80
2018-09-08T21:13:12.093Z,4.40
2018-09-08T21:15:39.748Z,3.50
2018-09-08T21:18:07.463Z,4.03
2018-09-08T21:20:35.155Z,5.17
2018-09-08T21:23:02.853Z,4.70
2018-09-08T21:25:30.556Z,4.43
2018-09-08T21:27:58.297Z,4.70
2018-09-08T21:30:26.114Z,5.27
2018-09-08T21:32:53.799Z,4.57
2018-09-08T21:35:21.494Z,5.13
2018-09-08T21:37:49.187Z,4.90
2018-09-08T21:40:16.888Z,5.13
2018-09-08T21:42:44.593Z,4.40
2018-09-08T21:45:12.320Z,5.70
2018-09-08T21:47:40.068Z,4.90
2018-09-08T21:50:07.808Z,4.67
2018-09-08T21:52:35.481Z,4.83
2018-09-08T21:55:03.325Z,4.87
2018-09-08T21:57:31.083Z,4.60
2018-09-08T21:59:58.751Z,4.80
2018-09-08T22:04:59.599Z,5.30
2018-09-08T22:07:27.272Z,4.50
2018-09-08T22:09:54.957Z,4.83
2018-09-08T22:12:22.663Z,4.30
2018-09-08T22:14:50.345Z,4.70
2018-09-08T22:17:18.012Z,4.47
2018-09-08T22:19:45.739Z,3.93
2018-09-08T22:22:13.405Z,4.37
2018-09-08T22:24:41.096Z,4.70
2018-09-08T22:27:08.833Z,4.30
2018-09-08T22:29:36.616Z,4.30
2018-09-08T22:32:04.267Z,4.00
2018-09-08T22:34:31.988Z,4.03
2018-09-08T22:36:59.645Z,4.87
2018-09-08T22:39:27.321Z,4.43
2018-09-08T22:41:55.046Z,4.23
2018-09-08T22:44:22.721Z,3.93
2018-09-08T22:46:50.390Z,4.57
2018-09-08T22:49:18.091Z,4.17
2018-09-08T22:51:45.841Z,4.50
2018-09-08T22:54:13.597Z,4.13
2018-09-08T22:56:41.404Z,4.10
2018-09-08T22:59:09.183Z,3.93
2018-09-08T23:01:36.940Z,4.37
2018-09-08T23:04:04.715Z,4.87
2018-09-08T23:06:32.461Z,4.33
2018-09-08T23:09:00.180Z,3.70
2018-09-08T23:11:27.961Z,4.13
2018-09-08T23:13:55.716Z,4.47
2018-09-08T23:16:23.449Z,4.70
2018-09-08T23:18:51.254Z,4.67
2018-09-08T23:21:19.009Z,4.20
2018-09-08T23:23:46.768Z,4.60
2018-09-08T23:26:14.560Z,4.13
2018-09-08T23:28:42.304Z,4.70
2018-09-08T23:31:10.055Z,4.33
2018-09-08T23:33:37.852Z,4.50
2018-09-08T23:36:05.763Z,4.10
2018-09-08T23:38:33.497Z,4.50
2018-09-08T23:41:01.324Z,5.00
2018-09-08T23:43:29.116Z,4.70
2018-09-08T23:45:56.852Z,4.43
2018-09-08T23:48:24.620Z,4.37
2018-09-08T23:50:52.401Z,4.83
2018-09-08T23:53:20.169Z,4.30
2018-09-08T23:55:47.945Z,4.47
2018-09-08T23:58:15.693Z,4.77
